createdAt,value
2019-01-23T06:42:52.955Z,0.00
2019-01-23T07:02:07.734Z,0.00
2019-01-23T07:13:14.691Z,0.00
2019-01-23T07:14:14.004Z,0.00
2019-01-23T07:15:14.127Z,5.62
2019-01-23T07:16:14.133Z,5.62
2019-01-23T07:17:13.991Z,5.62
2019-01-23T07:18:13.938Z,5.62
2019-01-23T07:19:13.929Z,5.62
2019-01-23T07:20:30.665Z,11.25
2019-01-23T07:21:14.228Z,11.25
2019-01-23T07:22:14.152Z,11.25
2019-01-23T07:23:14.000Z,11.25
2019-01-23T07:24:14.001Z,16.88
2019-01-23T07:25:13.910Z,16.88
2019-01-23T07:26:13.816Z,22.50
2019-01-23T07:27:13.769Z,22.50
2019-01-23T07:28:13.858Z,28.12
2019-01-23T07:29:13.750Z,33.75
2019-01-23T07:30:13.804Z,39.38
2019-01-23T07:31:14.169Z,39.38
2019-01-23T07:32:13.743Z,45.00
2019-01-23T07:33:13.702Z,45.00
2019-01-23T07:34:13.879Z,50.62
2019-01-23T08:43:49.591Z,455.62
2019-01-23T08:44:49.559Z,483.75
2019-01-23T08:45:53.094Z,461.25
2019-01-23T08:46:49.464Z,511.88
2019-01-23T08:47:49.458Z,511.88
2019-01-23T08:48:49.861Z,438.75
2019-01-23T08:49:49.339Z,416.25
2019-01-23T08:50:49.285Z,399.38
2019-01-23T08:51:49.280Z,371.25
2019-01-23T08:52:49.287Z,354.38
2019-01-23T08:53:49.335Z,337.50
2019-01-23T08:54:49.258Z,320.62
2019-01-23T08:55:53.479Z,315.00
2019-01-23T08:56:49.227Z,326.25
2019-01-23T08:57:49.193Z,326.25
2019-01-23T08:58:49.983Z,315.00
2019-01-23T08:59:49.183Z,315.00
2019-01-23T09:00:49.302Z,309.38
2019-01-23T09:01:49.127Z,309.38
2019-01-23T09:02:49.148Z,303.75
2019-01-23T09:03:49.173Z,303.75
2019-01-23T09:04:49.202Z,309.38
2019-01-23T09:05:49.470Z,320.62
2019-01-23T09:08:21.838Z,360.00
2019-01-23T10:12:05.396Z,388.12
2019-01-23T10:13:05.043Z,393.75
2019-01-23T10:14:05.672Z,388.12
2019-01-23T10:15:04.754Z,393.75
2019-01-23T10:16:05.382Z,393.75
2019-01-23T10:17:05.532Z,399.38
2019-01-23T10:18:04.460Z,405.00
2019-01-23T10:19:04.405Z,405.00
2019-01-23T10:20:04.436Z,405.00
2019-01-23T10:21:04.460Z,405.00
2019-01-23T10:22:04.391Z,410.62
2019-01-23T10:23:04.381Z,405.00
2019-01-23T10:24:04.424Z,399.38
2019-01-23T10:25:04.383Z,399.38
2019-01-23T10:26:04.400Z,393.75
2019-01-23T10:27:04.352Z,399.38
2019-01-23T10:28:04.305Z,399.38
2019-01-23T10:29:04.320Z,388.12
2019-01-23T10:30:04.304Z,376.88
2019-01-23T10:31:06.798Z,393.75
2019-01-23T10:32:04.445Z,399.38
2019-01-23T10:33:04.302Z,399.38
2019-01-23T10:34:04.241Z,393.75
2019-01-23T10:35:05.066Z,365.62
2019-01-23T10:36:04.229Z,360.00
2019-01-23T10:37:04.223Z,365.62
2019-01-23T10:38:04.230Z,360.00
2019-01-23T10:39:04.186Z,348.75
2019-01-23T10:40:04.236Z,326.25
2019-01-23T10:41:04.201Z,315.00
2019-01-23T10:42:04.159Z,315.00
2019-01-23T10:43:04.191Z,331.88
2019-01-23T10:44:04.159Z,354.38
2019-01-23T10:45:04.161Z,376.88
2019-01-23T10:46:04.173Z,388.12
2019-01-23T10:47:04.116Z,393.75
2019-01-23T10:48:04.151Z,393.75
2019-01-23T10:49:06.191Z,388.12
2019-01-23T10:50:04.130Z,393.75
2019-01-23T10:51:04.055Z,421.88
2019-01-23T10:52:04.080Z,472.50
2019-01-23T10:53:04.046Z,523.12
2019-01-23T10:54:04.038Z,534.38
2019-01-23T10:55:04.045Z,523.12
2019-01-23T10:56:04.823Z,517.50
2019-01-23T10:57:05.103Z,511.88
2019-01-23T10:58:04.005Z,523.12
2019-01-23T10:59:04.043Z,506.25
2019-01-23T11:00:04.052Z,500.62
2019-01-23T11:01:03.995Z,489.38
2019-01-23T11:02:03.937Z,478.12
2019-01-23T11:03:10.001Z,466.88
2019-01-23T11:04:04.916Z,461.25
2019-01-23T11:05:03.942Z,472.50
2019-01-23T11:06:03.933Z,478.12
2019-01-23T11:07:04.004Z,450.00
2019-01-23T11:08:03.916Z,438.75
2019-01-23T11:09:03.870Z,427.50
2019-01-23T11:10:03.953Z,427.50
2019-01-23T11:11:03.924Z,427.50
2019-01-23T11:12:03.856Z,421.88
2019-01-23T11:13:03.828Z,438.75
2019-01-23T11:14:03.811Z,450.00
2019-01-23T11:15:03.791Z,472.50
2019-01-23T11:16:03.792Z,495.00
2019-01-23T11:17:03.808Z,523.12
2019-01-23T11:18:03.784Z,534.38
2019-01-23T11:19:03.785Z,545.62
2019-01-23T11:20:03.765Z,551.25
2019-01-23T11:21:03.774Z,562.50
2019-01-23T11:22:03.716Z,579.38
2019-01-23T11:23:03.714Z,590.62
2019-01-23T11:24:03.701Z,601.88
2019-01-23T11:25:03.688Z,613.12
2019-01-23T11:26:03.755Z,624.38
2019-01-23T11:27:03.743Z,624.38
2019-01-23T11:28:03.654Z,635.62
2019-01-23T11:31:20.556Z,658.12
2019-01-23T11:33:30.052Z,652.50
2019-01-23T11:34:38.259Z,652.50
2019-01-23T11:35:29.898Z,669.38
2019-01-23T11:36:29.954Z,658.12
2019-01-23T11:37:30.069Z,646.88
2019-01-23T11:38:30.001Z,641.25
2019-01-23T11:39:29.855Z,641.25
2019-01-23T11:42:00.264Z,652.50
2019-01-23T11:43:00.344Z,652.50
2019-01-23T11:43:59.595Z,652.50
2019-01-23T11:56:27.728Z,545.62
2019-01-23T11:57:27.055Z,540.00
2019-01-23T11:58:27.072Z,551.25
2019-01-23T11:59:27.003Z,556.88
2019-01-23T12:00:26.900Z,562.50
2019-01-23T12:01:27.604Z,568.12
2019-01-23T12:02:30.692Z,579.38
2019-01-23T12:03:27.032Z,585.00
2019-01-23T12:04:38.803Z,596.25
2019-01-23T12:07:50.789Z,568.12
2019-01-23T12:08:50.353Z,585.00
2019-01-23T12:09:50.409Z,573.75
2019-01-23T12:10:50.347Z,545.62
2019-01-23T12:11:50.286Z,534.38
2019-01-23T12:12:50.245Z,528.75
2019-01-23T12:13:50.225Z,523.12
2019-01-23T12:14:50.205Z,528.75
2019-01-23T12:15:50.471Z,545.62
2019-01-23T12:16:50.133Z,556.88
2019-01-23T12:17:50.164Z,568.12
2019-01-23T12:18:52.410Z,573.75
2019-01-23T12:19:50.975Z,568.12
2019-01-23T12:20:50.114Z,568.12
2019-01-23T12:21:50.139Z,568.12
2019-01-23T12:22:50.069Z,568.12
2019-01-23T12:23:50.077Z,573.75
2019-01-23T12:24:50.049Z,590.62
2019-01-23T12:25:50.064Z,607.50
2019-01-23T12:26:50.096Z,618.75
2019-01-23T12:27:50.014Z,624.38
2019-01-23T12:28:50.098Z,630.00
2019-01-23T12:32:44.341Z,686.25
2019-01-23T12:33:43.836Z,720.00
2019-01-23T12:34:43.831Z,753.75
2019-01-23T12:35:43.721Z,798.75
2019-01-23T12:36:43.814Z,804.38
2019-01-23T12:37:50.349Z,804.38
2019-01-23T12:38:43.688Z,787.50
2019-01-23T12:39:43.761Z,765.00
2019-01-23T12:40:43.643Z,759.38
2019-01-23T12:41:43.618Z,748.12
2019-01-23T12:42:43.636Z,759.38
2019-01-23T12:43:43.598Z,770.62
2019-01-23T12:44:43.642Z,781.88
2019-01-23T12:45:43.711Z,793.12
2019-01-23T12:46:43.563Z,810.00
2019-01-23T12:47:43.560Z,815.62
2019-01-23T12:48:43.597Z,793.12
2019-01-23T12:49:43.650Z,781.88
2019-01-23T12:50:43.573Z,765.00
2019-01-23T12:51:43.524Z,759.38
2019-01-23T12:52:43.497Z,753.75
2019-01-23T12:53:43.542Z,736.88
2019-01-23T12:54:43.500Z,720.00
2019-01-23T12:55:43.508Z,725.62
2019-01-23T12:56:43.563Z,708.75
2019-01-23T12:57:43.570Z,697.50
2019-01-23T12:58:43.434Z,675.00
2019-01-23T12:59:43.564Z,663.75
2019-01-23T13:00:43.410Z,641.25
2019-01-23T13:01:43.424Z,624.38
2019-01-23T13:02:43.396Z,596.25
2019-01-23T13:03:43.389Z,573.75
2019-01-23T13:04:43.366Z,551.25
2019-01-23T13:05:43.504Z,540.00
2019-01-23T13:06:43.393Z,528.75
2019-01-23T13:07:43.373Z,523.12
2019-01-23T13:08:44.197Z,517.50
2019-01-23T13:09:43.310Z,511.88
2019-01-23T13:10:43.325Z,500.62
2019-01-23T13:11:43.419Z,500.62
2019-01-23T13:15:07.990Z,506.25
2019-01-23T13:16:07.699Z,500.62
2019-01-23T13:17:07.600Z,500.62
2019-01-23T13:18:07.656Z,500.62
2019-01-23T13:19:07.424Z,506.25
2019-01-23T13:20:07.412Z,511.88
2019-01-23T13:21:07.408Z,523.12
2019-01-23T13:22:07.429Z,534.38
2019-01-23T13:23:07.380Z,545.62
2019-01-23T13:24:07.830Z,534.38
2019-01-23T13:25:07.389Z,540.00
2019-01-23T13:26:07.356Z,562.50
2019-01-23T13:27:07.423Z,590.62
2019-01-23T13:28:07.415Z,618.75
2019-01-23T13:29:07.288Z,646.88
2019-01-23T13:30:07.295Z,641.25
2019-01-23T13:31:07.285Z,613.12
2019-01-23T13:32:07.302Z,568.12
2019-01-23T13:33:07.287Z,585.00
2019-01-23T13:34:07.261Z,618.75
2019-01-23T13:35:07.219Z,618.75
2019-01-23T13:36:07.437Z,590.62
2019-01-23T13:37:07.211Z,585.00
2019-01-23T13:38:08.241Z,590.62
2019-01-23T13:39:08.296Z,579.38
2019-01-23T13:40:09.898Z,596.25
2019-01-23T13:41:07.246Z,585.00
2019-01-23T13:42:07.241Z,573.75
2019-01-23T13:43:07.326Z,556.88
2019-01-23T13:44:07.268Z,568.12
2019-01-23T13:45:07.335Z,596.25
2019-01-23T13:46:07.113Z,596.25
2019-01-23T13:47:07.466Z,596.25
2019-01-23T13:48:07.392Z,596.25
2019-01-23T13:49:07.074Z,590.62
2019-01-23T13:50:07.185Z,601.88
2019-01-23T13:51:07.345Z,579.38
2019-01-23T13:52:07.539Z,585.00
2019-01-23T13:58:49.662Z,579.38
2019-01-23T13:59:48.737Z,590.62
2019-01-23T14:00:48.574Z,613.12
2019-01-23T14:01:48.560Z,618.75
2019-01-23T14:02:48.484Z,601.88
2019-01-23T14:03:48.461Z,568.12
2019-01-23T14:04:48.981Z,545.62
2019-01-23T14:05:48.386Z,528.75
2019-01-23T14:06:48.499Z,511.88
2019-01-23T14:09:03.212Z,500.62
2019-01-23T14:10:03.095Z,506.25
2019-01-23T14:11:02.811Z,495.00
2019-01-23T14:12:02.800Z,466.88
2019-01-23T14:13:02.710Z,450.00
2019-01-23T14:14:02.645Z,450.00
2019-01-23T14:15:02.980Z,461.25
2019-01-23T14:16:06.620Z,478.12
2019-01-23T14:33:30.239Z,348.75
2019-01-23T14:52:31.064Z,253.12
2019-01-23T15:24:22.582Z,129.38
2019-01-23T15:27:31.146Z,112.50
2019-01-23T15:28:35.851Z,112.50
2019-01-23T15:33:39.362Z,90.00
2019-01-23T15:37:24.895Z,78.75
2019-01-23T15:38:24.492Z,73.12
2019-01-23T15:39:24.501Z,73.12
2019-01-23T15:40:24.387Z,73.12
2019-01-23T15:41:25.846Z,73.12
2019-01-23T15:42:24.513Z,73.12
2019-01-23T15:43:25.119Z,67.50
2019-01-23T15:44:24.332Z,67.50
2019-01-23T15:45:24.424Z,61.88
2019-01-23T15:46:24.402Z,56.25
2019-01-23T15:47:24.329Z,50.62
2019-01-23T15:48:24.436Z,45.00
2019-01-23T15:49:24.343Z,45.00
2019-01-23T15:50:24.314Z,39.38
2019-01-23T15:51:24.441Z,39.38
2019-01-23T15:52:24.286Z,39.38
2019-01-23T15:53:24.270Z,33.75
2019-01-23T15:54:24.237Z,33.75
2019-01-23T15:55:24.390Z,28.12
2019-01-23T15:56:24.408Z,28.12
2019-01-23T15:57:24.335Z,22.50
2019-01-23T15:58:24.498Z,22.50
2019-01-23T16:05:45.363Z,11.25
2019-01-23T16:06:44.328Z,11.25
2019-01-23T16:07:44.320Z,11.25
2019-01-23T16:08:44.335Z,5.62
2019-01-23T16:09:44.525Z,5.62
2019-01-23T16:13:42.274Z,5.62
2019-01-23T16:14:29.773Z,5.62
2019-01-23T16:15:29.890Z,0.00
2019-01-23T16:16:30.467Z,0.00
2019-01-23T16:17:30.431Z,0.00
2019-01-23T16:18:29.627Z,0.00
2019-01-23T16:19:29.606Z,0.00
2019-01-23T16:20:29.574Z,0.00
2019-01-23T16:21:29.640Z,0.00
2019-01-23T16:22:29.555Z,0.00
2019-01-23T16:23:29.574Z,0.00
2019-01-23T16:24:29.525Z,0.00
2019-01-23T16:25:29.521Z,0.00
2019-01-23T16:26:29.548Z,0.00
2019-01-23T16:27:29.750Z,0.00
2019-01-23T16:28:29.497Z,0.00
2019-01-23T16:29:29.520Z,0.00
2019-01-23T16:30:29.469Z,0.00
2019-01-23T16:31:29.625Z,0.00
2019-01-23T16:32:31.604Z,0.00
2019-01-23T16:33:29.469Z,0.00
2019-01-23T16:34:29.417Z,0.00
2019-01-23T16:35:29.541Z,0.00
2019-01-23T16:36:29.446Z,0.00
2019-01-23T16:37:29.421Z,0.00
2019-01-23T16:38:29.416Z,0.00
2019-01-23T16:39:29.387Z,0.00
2019-01-23T16:40:29.542Z,0.00
2019-01-23T16:41:29.447Z,0.00
2019-01-23T16:42:29.462Z,0.00
2019-01-23T16:43:37.926Z,0.00
2019-01-23T16:44:29.316Z,0.00
2019-01-23T16:45:30.056Z,0.00
2019-01-23T16:46:31.625Z,0.00
2019-01-23T16:47:29.354Z,0.00
2019-01-23T16:48:29.284Z,0.00
2019-01-23T16:49:29.274Z,0.00
2019-01-23T16:50:29.244Z,0.00
2019-01-23T16:51:29.453Z,0.00
2019-01-23T16:52:29.279Z,0.00
2019-01-23T16:53:29.252Z,0.00
2019-01-23T16:54:29.207Z,0.00
2019-01-23T16:55:29.214Z,0.00
2019-01-23T16:56:29.182Z,0.00
2019-01-23T16:57:29.309Z,0.00
2019-01-23T16:58:29.232Z,0.00
2019-01-23T16:59:31.060Z,0.00
2019-01-23T17:01:49.597Z,0.00
2019-01-23T17:02:51.035Z,0.00
2019-01-23T17:03:49.893Z,0.00
2019-01-23T17:04:48.906Z,0.00
2019-01-23T17:05:48.938Z,0.00
2019-01-23T17:06:48.917Z,0.00
2019-01-23T17:07:48.823Z,0.00
2019-01-23T17:08:48.883Z,0.00
2019-01-23T17:09:48.823Z,0.00
2019-01-23T17:10:51.747Z,0.00
2019-01-23T17:14:20.807Z,0.00
2019-01-23T17:15:21.077Z,0.00
2019-01-23T17:16:20.799Z,0.00
2019-01-23T17:23:40.285Z,0.00
2019-01-23T17:24:41.437Z,0.00
2019-01-23T17:35:52.389Z,0.00
2019-01-23T17:36:51.873Z,0.00
2019-01-23T17:37:52.250Z,0.00
2019-01-23T17:38:51.818Z,0.00
2019-01-23T17:39:51.685Z,0.00
2019-01-23T17:40:51.938Z,0.00
2019-01-23T17:43:50.063Z,0.00
2019-01-23T17:46:02.253Z,0.00
2019-01-23T17:47:02.739Z,0.00
2019-01-23T17:48:01.945Z,0.00
2019-01-23T17:49:02.765Z,0.00
2019-01-23T17:50:01.898Z,0.00
2019-01-23T17:53:38.699Z,0.00
2019-01-23T18:10:50.645Z,0.00
2019-01-23T18:11:52.116Z,0.00
2019-01-23T18:19:28.561Z,0.00
2019-01-23T18:20:24.744Z,0.00
2019-01-23T18:21:24.491Z,0.00
2019-01-23T18:22:24.437Z,0.00
2019-01-23T18:26:37.428Z,0.00
2019-01-23T18:27:33.417Z,0.00
2019-01-23T18:29:53.810Z,0.00
2019-01-23T18:30:53.431Z,0.00
2019-01-23T18:31:53.514Z,0.00
2019-01-23T18:39:25.847Z,0.00
2019-01-23T18:40:26.308Z,0.00
2019-01-23T18:41:26.720Z,0.00
2019-01-23T18:42:25.074Z,0.00
2019-01-23T18:58:41.439Z,0.00
2019-01-23T18:59:41.186Z,0.00
2019-01-23T19:00:40.976Z,0.00
2019-01-23T19:01:40.895Z,0.00
2019-01-23T19:02:40.972Z,0.00
2019-01-23T19:07:13.473Z,0.00
2019-01-23T19:08:14.430Z,0.00
2019-01-23T19:40:29.460Z,0.00
2019-01-23T19:53:06.060Z,0.00
2019-01-23T19:57:46.710Z,0.00
2019-01-23T20:26:59.627Z,0.00
2019-01-23T20:29:11.638Z,0.00
2019-01-23T20:30:11.274Z,0.00
2019-01-23T20:31:12.228Z,0.00
2019-01-23T20:32:14.589Z,0.00
2019-01-23T20:33:11.041Z,0.00
2019-01-23T20:34:12.182Z,0.00
2019-01-23T20:35:11.418Z,0.00
2019-01-23T20:58:05.183Z,0.00
2019-01-23T20:59:04.835Z,0.00
2019-01-23T21:00:04.843Z,0.00
2019-01-23T21:01:05.177Z,0.00
2019-01-23T21:02:04.735Z,0.00
2019-01-23T21:03:04.745Z,0.00
2019-01-23T21:04:04.830Z,0.00
2019-01-23T21:05:04.611Z,0.00
2019-01-23T21:06:04.559Z,0.00
2019-01-23T21:07:04.666Z,0.00
2019-01-23T21:08:04.512Z,0.00
2019-01-23T21:09:04.517Z,0.00
2019-01-23T21:10:04.525Z,0.00
2019-01-23T21:11:04.484Z,0.00
2019-01-23T21:12:04.517Z,0.00
2019-01-23T21:13:04.534Z,0.00
2019-01-23T21:14:04.774Z,0.00
2019-01-23T21:15:04.753Z,0.00
2019-01-23T21:16:06.234Z,0.00
2019-01-23T21:17:04.473Z,0.00
2019-01-23T21:18:05.171Z,0.00
2019-01-23T21:20:39.689Z,0.00
